createdAt,value
2023-05-08T00:01:26.410Z,101643.41
2023-05-08T00:03:53.288Z,101643.91
2023-05-08T00:06:20.300Z,101644.00
2023-05-08T00:08:46.907Z,101627.03
2023-05-08T00:11:13.789Z,101648.13
2023-05-08T00:13:41.497Z,101465.03
2023-05-08T00:16:13.075Z,101639.19
2023-05-08T00:18:40.257Z,101605.09
2023-05-08T00:21:07.224Z,101491.00
2023-05-08T00:23:34.307Z,101647.44
2023-05-08T00:26:01.011Z,101648.38
2023-05-08T00:28:27.885Z,101644.97
2023-05-08T00:30:54.638Z,101605.25
2023-05-08T00:33:21.447Z,101652.41
2023-05-08T00:35:48.157Z,101475.91
2023-05-08T00:38:14.822Z,101624.69
2023-05-08T00:40:41.621Z,101656.22
2023-05-08T00:43:09.422Z,101676.59
2023-05-08T00:45:37.886Z,101653.53
2023-05-08T00:48:05.387Z,101556.47
2023-05-08T00:50:32.841Z,101653.81
2023-05-08T00:53:02.888Z,101630.91
2023-05-08T00:55:30.915Z,101648.28
2023-05-08T00:57:57.596Z,101604.44
2023-05-08T01:00:24.935Z,101504.47
2023-05-08T01:02:51.989Z,101640.91
2023-05-08T01:05:18.946Z,101645.97
2023-05-08T01:07:46.227Z,101654.09
2023-05-08T01:10:13.186Z,101633.19
2023-05-08T01:13:09.261Z,101550.00
2023-05-08T01:15:46.974Z,101791.34
2023-05-08T01:18:23.177Z,101451.22
2023-05-08T01:21:13.545Z,101648.00
2023-05-08T01:24:11.263Z,101477.53
2023-05-08T01:26:38.109Z,101650.72
2023-05-08T01:29:28.266Z,101660.25
2023-05-08T01:32:23.641Z,101663.03
2023-05-08T01:35:24.115Z,101660.56
2023-05-08T01:38:10.559Z,101670.56
2023-05-08T01:40:44.885Z,101665.31
2023-05-08T01:43:23.202Z,101666.66
2023-05-08T01:45:52.947Z,101669.25
2023-05-08T01:48:33.067Z,101634.66
2023-05-08T01:51:17.094Z,101673.22
2023-05-08T01:53:47.705Z,101679.09
2023-05-08T01:56:19.017Z,101675.09
2023-05-08T01:58:47.906Z,101677.81
2023-05-08T02:01:18.041Z,101681.41
2023-05-08T02:03:46.123Z,101677.06
2023-05-08T02:06:16.851Z,101659.31
2023-05-08T02:08:46.367Z,101681.97
2023-05-08T02:11:15.036Z,101686.00
2023-05-08T02:13:44.652Z,101682.56
2023-05-08T02:16:12.989Z,101660.81
2023-05-08T02:18:46.924Z,101694.50
2023-05-08T02:21:15.460Z,101404.25
2023-05-08T02:23:44.669Z,101701.09
2023-05-08T02:26:14.032Z,101657.09
2023-05-08T02:28:41.909Z,101701.00
2023-05-08T02:31:13.234Z,101701.81
2023-05-08T02:33:42.027Z,101691.81
2023-05-08T02:36:10.901Z,101697.59
2023-05-08T02:38:39.846Z,101697.75
2023-05-08T02:41:07.941Z,101651.00
2023-05-08T02:43:35.698Z,101663.22
2023-05-08T02:46:13.463Z,101539.41
2023-05-08T02:49:03.557Z,101693.16
2023-05-08T02:51:47.094Z,101691.03
2023-05-08T02:54:25.164Z,101696.94
2023-05-08T02:57:27.420Z,101697.31
2023-05-08T03:00:05.135Z,101701.22
2023-05-08T03:02:38.134Z,101704.63
2023-05-08T03:05:30.608Z,101698.34
2023-05-08T03:08:02.893Z,101601.81
2023-05-08T03:10:33.577Z,101703.69
2023-05-08T03:13:03.780Z,101703.88
2023-05-08T03:15:41.895Z,101573.66
2023-05-08T03:18:14.141Z,101700.44
2023-05-08T03:20:45.613Z,101670.38
2023-05-08T03:23:18.205Z,101693.25
2023-05-08T03:25:44.982Z,101694.44
2023-05-08T03:28:14.023Z,101690.06
2023-05-08T03:30:41.881Z,101691.56
2023-05-08T03:33:12.674Z,101689.56
2023-05-08T03:35:39.973Z,101689.94
2023-05-08T03:38:08.676Z,101691.03
2023-05-08T03:40:38.952Z,101535.75
2023-05-08T03:43:07.960Z,101695.63
2023-05-08T03:45:37.024Z,101632.69
2023-05-08T03:48:05.971Z,101695.22
2023-05-08T03:50:36.891Z,101692.53
2023-05-08T03:53:05.437Z,101698.97
2023-05-08T03:55:32.926Z,101693.72
2023-05-08T03:58:19.576Z,101687.75
2023-05-08T04:01:11.910Z,101684.78
2023-05-08T04:03:42.486Z,101688.75
2023-05-08T04:06:22.925Z,101693.81
2023-05-08T04:09:00.484Z,101692.31
2023-05-08T04:12:18.653Z,101687.81
2023-05-08T04:14:56.259Z,101687.81
2023-05-08T04:17:42.131Z,101551.03
2023-05-08T04:20:13.788Z,101652.72
2023-05-08T04:22:42.427Z,101681.34
2023-05-08T04:25:12.632Z,101651.00
2023-05-08T04:27:39.730Z,101685.13
2023-05-08T04:30:09.357Z,101687.75
2023-05-08T04:32:40.265Z,101678.03
2023-05-08T04:35:08.563Z,101804.22
2023-05-08T04:37:35.491Z,101666.31
2023-05-08T04:40:04.940Z,101661.56
2023-05-08T04:42:36.486Z,101683.50
2023-05-08T04:45:04.037Z,101655.81
2023-05-08T04:47:31.436Z,101676.31
2023-05-08T04:50:00.016Z,101681.72
2023-05-08T04:52:29.324Z,101682.06
2023-05-08T04:54:55.944Z,101673.66
2023-05-08T04:57:22.671Z,101639.72
2023-05-08T04:59:49.319Z,101685.63
2023-05-08T05:02:16.372Z,101682.09
2023-05-08T05:04:43.374Z,101682.75
2023-05-08T05:07:10.682Z,101661.06
2023-05-08T05:09:39.259Z,101678.81
2023-05-08T05:12:07.079Z,101683.41
2023-05-08T05:14:34.376Z,101686.69
2023-05-08T05:17:01.403Z,101681.88
2023-05-08T05:19:28.146Z,101679.88
2023-05-08T05:21:55.352Z,101686.47
2023-05-08T05:24:22.137Z,101654.06
2023-05-08T05:26:49.043Z,101552.22
2023-05-08T05:29:15.999Z,101687.22
2023-05-08T05:31:43.171Z,101681.25
2023-05-08T05:34:09.904Z,101685.16
2023-05-08T05:36:36.907Z,101686.66
2023-05-08T05:39:03.727Z,101641.22
2023-05-08T05:41:31.210Z,101562.56
2023-05-08T05:43:58.250Z,101648.53
2023-05-08T05:46:32.424Z,101690.13
2023-05-08T05:49:01.420Z,101683.44
2023-05-08T05:51:29.286Z,101679.84
2023-05-08T05:53:57.155Z,101684.63
2023-05-08T05:56:24.890Z,101690.00
2023-05-08T05:58:51.757Z,101715.47
2023-05-08T06:01:18.410Z,101522.59
2023-05-08T06:03:45.265Z,101664.13
2023-05-08T06:06:12.536Z,101682.81
2023-05-08T06:08:39.464Z,101686.75
2023-05-08T06:11:06.128Z,101680.47
2023-05-08T06:13:33.150Z,101689.69
2023-05-08T06:16:00.510Z,101409.94
2023-05-08T06:18:27.245Z,101656.09
2023-05-08T06:20:57.950Z,101677.69
2023-05-08T06:23:24.933Z,101482.91
2023-05-08T06:25:51.618Z,101678.00
2023-05-08T06:28:18.876Z,101684.56
2023-05-08T06:30:45.545Z,101606.59
2023-05-08T06:33:12.498Z,101677.59
2023-05-08T06:35:39.235Z,101673.13
2023-05-08T06:38:06.326Z,101673.94
2023-05-08T06:40:32.904Z,101673.03
2023-05-08T06:42:59.617Z,101666.63
2023-05-08T06:45:26.200Z,101664.78
2023-05-08T06:47:53.014Z,101437.34
2023-05-08T06:50:19.838Z,101673.66
2023-05-08T06:52:46.484Z,101666.44
2023-05-08T06:55:13.332Z,101668.59
2023-05-08T06:57:40.111Z,101657.22
2023-05-08T07:00:07.530Z,101668.03
2023-05-08T07:02:34.346Z,101681.31
2023-05-08T07:05:01.242Z,101646.50
2023-05-08T07:07:28.075Z,101618.31
2023-05-08T07:09:54.775Z,101646.06
2023-05-08T07:12:21.474Z,101624.13
2023-05-08T07:14:48.089Z,101590.13
2023-05-08T07:17:14.846Z,101652.75
2023-05-08T07:19:41.465Z,101651.66
2023-05-08T07:22:08.219Z,101641.41
2023-05-08T07:24:34.956Z,101607.53
2023-05-08T07:27:01.871Z,101637.50
2023-05-08T07:29:28.582Z,101591.09
2023-05-08T07:31:55.605Z,101643.56
2023-05-08T07:34:22.326Z,101641.78
2023-05-08T07:36:49.046Z,101618.97
2023-05-08T07:39:15.705Z,101643.00
2023-05-08T07:41:42.473Z,101607.50
2023-05-08T07:44:09.532Z,101638.59
2023-05-08T07:46:37.128Z,101641.84
2023-05-08T07:49:03.900Z,101643.53
2023-05-08T07:51:30.593Z,101630.25
2023-05-08T07:53:57.295Z,101638.34
2023-05-08T07:56:24.329Z,101640.69
2023-05-08T07:58:50.958Z,101628.56
2023-05-08T08:01:18.282Z,101590.97
2023-05-08T08:03:46.468Z,101592.44
2023-05-08T08:06:13.571Z,101628.16
2023-05-08T08:08:40.515Z,101576.19
2023-05-08T08:11:07.578Z,101630.63
2023-05-08T08:13:34.336Z,101628.28
2023-05-08T08:16:03.936Z,101637.28
2023-05-08T08:18:33.708Z,101629.34
2023-05-08T08:21:00.430Z,101604.97
2023-05-08T08:23:27.382Z,101626.72
2023-05-08T08:25:54.394Z,101626.00
2023-05-08T08:28:21.225Z,101620.47
2023-05-08T08:30:48.238Z,101619.84
2023-05-08T08:33:16.316Z,101626.66
2023-05-08T08:35:44.999Z,101618.63
2023-05-08T08:38:11.674Z,101615.63
2023-05-08T08:40:42.674Z,101608.59
2023-05-08T08:43:10.046Z,101468.00
2023-05-08T08:45:37.620Z,101613.22
2023-05-08T08:48:05.030Z,101606.00
2023-05-08T08:50:32.972Z,101609.84
2023-05-08T08:53:25.823Z,101612.06
2023-05-08T08:55:55.933Z,101618.56
2023-05-08T08:58:38.131Z,101613.22
2023-05-08T09:01:08.120Z,101571.56
2023-05-08T09:03:35.155Z,101617.19
2023-05-08T09:06:02.738Z,101609.50
2023-05-08T09:08:29.934Z,101594.13
2023-05-08T09:10:56.612Z,101595.91
2023-05-08T09:13:23.358Z,101589.00
2023-05-08T09:15:50.755Z,101589.28
2023-05-08T09:18:17.655Z,101588.31
2023-05-08T09:20:44.765Z,101591.91
2023-05-08T09:23:11.590Z,101588.00
2023-05-08T09:25:45.891Z,101585.78
2023-05-08T09:28:17.207Z,101580.75
2023-05-08T09:30:58.053Z,101579.38
2023-05-08T09:33:29.715Z,101496.38
2023-05-08T09:35:57.062Z,101570.44
2023-05-08T09:38:41.928Z,101572.72
2023-05-08T09:41:16.476Z,101477.72
2023-05-08T09:43:44.915Z,101449.50
2023-05-08T09:46:24.667Z,101553.84
2023-05-08T09:48:56.764Z,101546.22
2023-05-08T09:51:24.798Z,101545.81
2023-05-08T09:53:53.284Z,101508.44
2023-05-08T09:56:37.384Z,101532.56
2023-05-08T09:59:06.333Z,101497.31
2023-05-08T10:01:34.254Z,101523.63
2023-05-08T10:04:01.919Z,101523.97
2023-05-08T10:06:29.428Z,101496.63
2023-05-08T10:09:22.430Z,101518.44
2023-05-08T10:11:54.547Z,101514.41
2023-05-08T10:14:22.886Z,101406.59
2023-05-08T10:16:54.318Z,101511.03
2023-05-08T10:19:23.027Z,101400.19
2023-05-08T10:21:54.143Z,101524.81
2023-05-08T10:24:24.127Z,101522.31
2023-05-08T10:27:21.017Z,101532.97
2023-05-08T10:29:56.273Z,101515.34
2023-05-08T10:32:24.557Z,101393.72
2023-05-08T10:35:00.285Z,101495.59
2023-05-08T10:37:30.026Z,101517.28
2023-05-08T10:39:58.020Z,101468.97
2023-05-08T10:42:26.286Z,101513.81
2023-05-08T10:44:53.533Z,101491.44
2023-05-08T10:48:03.561Z,101517.78
2023-05-08T10:50:57.071Z,101514.31
2023-05-08T10:53:36.198Z,101507.88
2023-05-08T10:56:03.554Z,101517.50
2023-05-08T10:58:31.093Z,101527.41
2023-05-08T11:00:59.504Z,101520.75
2023-05-08T11:03:37.921Z,101526.00
2023-05-08T11:06:04.881Z,101486.03
2023-05-08T11:08:32.623Z,101511.41
2023-05-08T11:11:02.117Z,101522.47
2023-05-08T11:13:30.165Z,101520.31
2023-05-08T11:15:56.902Z,101500.53
2023-05-08T11:18:26.331Z,101504.81
2023-05-08T11:20:59.473Z,101460.00
2023-05-08T11:23:31.201Z,101521.41
2023-05-08T11:26:04.137Z,101524.84
2023-05-08T11:28:38.765Z,101530.94
2023-05-08T11:31:09.280Z,101524.38
2023-05-08T11:33:41.186Z,101527.13
2023-05-08T11:36:07.786Z,101520.44
2023-05-08T11:38:36.447Z,101524.97
2023-05-08T11:41:09.952Z,101521.28
2023-05-08T11:43:59.071Z,101528.19
2023-05-08T11:46:33.926Z,101514.47
2023-05-08T11:49:01.379Z,101521.88
2023-05-08T11:51:33.906Z,101520.41
2023-05-08T11:54:01.124Z,101495.84
2023-05-08T11:56:27.917Z,101500.75
2023-05-08T11:59:11.267Z,101512.50
2023-05-08T12:01:37.981Z,101508.06
2023-05-08T12:06:35.319Z,101529.41
2023-05-08T12:09:04.860Z,101507.13
2023-05-08T12:11:32.169Z,101507.84
2023-05-08T12:13:58.838Z,101469.41
2023-05-08T12:16:26.212Z,101498.28
2023-05-08T12:18:56.058Z,101468.63
2023-05-08T12:21:22.848Z,101490.78
2023-05-08T12:23:49.855Z,101486.47
2023-05-08T12:26:17.267Z,101486.84
2023-05-08T12:28:48.228Z,101470.72
2023-05-08T12:31:15.129Z,101477.97
2023-05-08T12:33:42.502Z,101462.91
2023-05-08T12:36:09.233Z,101324.25
2023-05-08T12:38:35.901Z,101459.97
2023-05-08T12:41:04.483Z,101455.22
2023-05-08T12:43:32.102Z,101438.88
2023-05-08T12:45:58.871Z,101435.19
2023-05-08T12:48:26.701Z,101436.97
2023-05-08T12:50:53.438Z,101432.31
2023-05-08T12:53:23.110Z,101404.78
2023-05-08T12:55:58.063Z,101435.41
2023-05-08T12:58:27.187Z,101435.53
2023-05-08T13:01:03.320Z,101439.69
2023-05-08T13:03:30.986Z,101437.66
2023-05-08T13:05:58.738Z,101434.66
2023-05-08T13:08:32.105Z,101435.59
2023-05-08T13:10:59.750Z,101433.22
2023-05-08T13:13:29.538Z,101349.06
2023-05-08T13:15:56.758Z,101425.09
2023-05-08T13:18:30.561Z,101376.41
2023-05-08T13:20:57.721Z,101438.38
2023-05-08T13:23:24.787Z,101306.06
2023-05-08T13:25:51.667Z,101441.59
2023-05-08T13:28:18.277Z,101431.56
2023-05-08T13:30:44.906Z,101427.75
2023-05-08T13:33:11.714Z,101367.53
2023-05-08T13:35:38.514Z,101303.66
2023-05-08T13:38:06.189Z,101435.63
2023-05-08T13:40:33.148Z,101427.31
2023-05-08T13:42:59.984Z,101425.09
2023-05-08T13:45:26.788Z,101436.88
2023-05-08T13:47:54.325Z,101430.81
2023-05-08T13:50:22.557Z,101294.66
2023-05-08T13:52:51.662Z,101428.38
2023-05-08T13:55:22.798Z,101416.31
2023-05-08T13:57:49.791Z,101423.50
2023-05-08T14:00:20.337Z,101323.53
2023-05-08T14:02:47.771Z,101387.66
2023-05-08T14:05:15.808Z,101421.81
2023-05-08T14:07:43.744Z,101412.34
2023-05-08T14:10:10.921Z,101405.59
2023-05-08T14:12:41.151Z,101237.13
2023-05-08T14:15:08.604Z,101362.22
2023-05-08T14:17:35.357Z,101400.16
2023-05-08T14:20:02.028Z,101414.13
2023-05-08T14:22:30.011Z,101409.97
2023-05-08T14:24:56.645Z,101404.53
2023-05-08T14:27:23.389Z,101410.09
2023-05-08T14:29:50.043Z,101353.38
2023-05-08T14:32:16.710Z,101395.88
2023-05-08T14:34:43.402Z,101363.84
2023-05-08T14:37:10.370Z,101397.47
2023-05-08T14:39:37.460Z,101392.84
2023-05-08T14:44:34.109Z,101390.53
2023-05-08T14:47:00.871Z,101385.53
2023-05-08T14:49:36.829Z,101385.41
2023-05-08T14:52:05.709Z,101352.00
2023-05-08T14:54:32.862Z,101382.22
2023-05-08T14:56:59.875Z,101384.28
2023-05-08T14:59:26.587Z,101384.44
2023-05-08T15:01:53.377Z,101303.81
2023-05-08T15:04:20.788Z,101380.34
2023-05-08T15:06:47.612Z,101371.19
2023-05-08T15:09:16.324Z,101376.88
2023-05-08T15:11:43.421Z,101376.19
2023-05-08T15:14:10.155Z,101311.50
2023-05-08T15:16:40.108Z,101177.38
2023-05-08T15:19:07.012Z,101368.19
2023-05-08T15:21:33.638Z,101347.06
2023-05-08T15:24:00.324Z,101348.44
2023-05-08T15:26:26.923Z,101367.31
2023-05-08T15:28:53.624Z,101305.94
2023-05-08T15:31:20.203Z,101364.75
2023-05-08T15:33:48.051Z,101356.47
2023-05-08T15:36:14.959Z,101330.00
2023-05-08T15:38:41.964Z,101268.06
2023-05-08T15:41:14.801Z,101331.91
2023-05-08T15:43:42.284Z,101342.28
2023-05-08T15:46:09.178Z,101332.69
2023-05-08T15:48:36.173Z,101208.28
2023-05-08T15:51:02.875Z,101252.50
2023-05-08T15:53:29.632Z,101346.47
2023-05-08T15:55:58.806Z,101349.69
2023-05-08T15:58:25.556Z,101338.16
2023-05-08T16:00:52.747Z,101347.19
2023-05-08T16:03:19.597Z,101240.41
2023-05-08T16:05:46.419Z,101318.91
2023-05-08T16:08:14.530Z,101339.06
2023-05-08T16:10:42.009Z,101340.00
2023-05-08T16:13:09.504Z,101297.44
2023-05-08T16:15:36.376Z,101339.31
2023-05-08T16:18:03.919Z,101311.28
2023-05-08T16:20:35.733Z,101319.13
2023-05-08T16:23:03.021Z,101337.63
2023-05-08T16:25:30.202Z,101294.03
2023-05-08T16:27:57.001Z,101336.28
2023-05-08T16:30:23.606Z,101316.59
2023-05-08T16:32:50.493Z,101330.44
2023-05-08T16:35:17.790Z,101331.50
2023-05-08T16:37:44.517Z,101321.69
2023-05-08T16:40:11.737Z,101300.16
2023-05-08T16:42:38.543Z,101278.28
2023-05-08T16:45:05.750Z,101177.63
2023-05-08T16:47:33.216Z,101269.25
2023-05-08T16:50:00.300Z,101272.16
2023-05-08T16:52:27.136Z,101312.53
2023-05-08T16:54:53.749Z,101299.03
2023-05-08T16:57:20.569Z,101306.16
2023-05-08T16:59:47.238Z,101299.25
2023-05-08T17:02:18.723Z,101303.22
2023-05-08T17:04:49.191Z,101296.19
2023-05-08T17:07:16.139Z,101271.41
2023-05-08T17:09:43.041Z,101264.66
2023-05-08T17:12:09.765Z,101299.72
2023-05-08T17:14:39.230Z,101292.53
2023-05-08T17:17:06.479Z,101296.28
2023-05-08T17:19:33.356Z,101292.28
2023-05-08T17:22:00.280Z,101291.59
2023-05-08T17:24:27.296Z,101285.53
2023-05-08T17:26:54.086Z,101241.53
2023-05-08T17:29:20.727Z,101235.84
2023-05-08T17:31:47.505Z,101224.13
2023-05-08T17:34:14.180Z,101213.53
2023-05-08T17:36:41.224Z,101325.50
2023-05-08T17:39:08.042Z,101259.44
2023-05-08T17:41:34.833Z,101291.06
2023-05-08T17:44:01.444Z,101177.63
2023-05-08T17:46:28.089Z,101292.28
2023-05-08T17:48:54.653Z,101289.25
2023-05-08T17:51:21.302Z,101290.38
2023-05-08T17:53:47.992Z,101290.03
2023-05-08T17:56:16.330Z,101265.31
2023-05-08T17:58:43.548Z,101282.03
2023-05-08T18:01:10.278Z,101158.94
2023-05-08T18:03:37.095Z,101256.44
2023-05-08T18:06:03.882Z,101272.63
2023-05-08T18:08:30.569Z,101277.97
2023-05-08T18:10:57.160Z,101277.84
2023-05-08T18:13:23.891Z,101282.88
2023-05-08T18:15:50.854Z,101231.25
2023-05-08T18:18:17.461Z,101279.31
2023-05-08T18:20:44.081Z,101168.66
2023-05-08T18:23:10.849Z,101269.06
2023-05-08T18:25:37.520Z,101268.25
2023-05-08T18:28:04.425Z,101280.25
2023-05-08T18:30:31.646Z,101280.56
2023-05-08T18:32:58.335Z,101277.91
2023-05-08T18:35:24.971Z,101234.25
2023-05-08T18:37:51.701Z,101274.72
2023-05-08T18:40:18.447Z,101277.47
2023-05-08T18:42:45.164Z,101269.97
2023-05-08T18:45:12.192Z,101279.13
2023-05-08T18:47:39.051Z,101269.50
2023-05-08T18:50:06.310Z,101279.56
2023-05-08T18:52:32.923Z,101277.81
2023-05-08T18:54:59.767Z,101272.94
2023-05-08T18:57:26.500Z,101272.94
2023-05-08T18:59:53.223Z,101272.09
2023-05-08T19:02:20.150Z,101269.50
2023-05-08T19:04:46.874Z,101269.84
2023-05-08T19:07:13.596Z,101265.56
2023-05-08T19:09:40.265Z,101265.44
2023-05-08T19:12:07.006Z,101269.03
2023-05-08T19:14:33.724Z,101216.06
2023-05-08T19:17:03.521Z,101128.50
2023-05-08T19:19:30.760Z,101250.69
2023-05-08T19:21:57.597Z,101270.44
2023-05-08T19:24:26.385Z,101263.91
2023-05-08T19:26:53.087Z,101254.00
2023-05-08T19:29:19.714Z,101296.38
2023-05-08T19:31:46.574Z,101258.78
2023-05-08T19:34:13.309Z,101249.84
2023-05-08T19:36:39.937Z,101249.84
2023-05-08T19:39:06.710Z,101229.88
2023-05-08T19:41:33.520Z,101250.19
2023-05-08T19:44:00.351Z,101254.00
2023-05-08T19:46:27.123Z,101147.78
2023-05-08T19:48:53.746Z,101256.16
2023-05-08T19:51:20.781Z,101245.81
2023-05-08T19:53:47.455Z,101220.81
2023-05-08T19:56:14.130Z,101244.94
2023-05-08T19:58:40.829Z,101225.56
2023-05-08T20:01:07.590Z,101243.53
2023-05-08T20:03:34.455Z,101246.41
2023-05-08T20:06:01.217Z,101245.69
2023-05-08T20:08:27.849Z,101233.78
2023-05-08T20:10:54.658Z,101241.75
2023-05-08T20:13:21.656Z,101245.09
2023-05-08T20:15:48.486Z,101238.31
2023-05-08T20:18:15.209Z,101231.28
2023-05-08T20:20:42.016Z,101230.56
2023-05-08T20:23:08.623Z,101232.47
2023-05-08T20:25:35.630Z,101223.53
2023-05-08T20:28:02.263Z,101223.91
2023-05-08T20:30:29.068Z,101223.78
2023-05-08T20:32:56.500Z,101218.56
2023-05-08T20:35:23.217Z,101216.78
2023-05-08T20:37:49.884Z,101212.34
2023-05-08T20:40:16.836Z,101212.13
2023-05-08T20:42:43.582Z,101211.03
2023-05-08T20:45:11.001Z,101130.28
2023-05-08T20:47:37.879Z,101138.00
2023-05-08T20:50:05.057Z,101207.00
2023-05-08T20:52:32.373Z,101155.25
2023-05-08T20:54:59.515Z,101239.00
2023-05-08T20:57:26.349Z,101201.16
2023-05-08T20:59:53.037Z,101203.78
2023-05-08T21:02:19.761Z,101202.59
2023-05-08T21:04:46.512Z,101127.84
2023-05-08T21:07:13.271Z,101197.00
2023-05-08T21:09:39.989Z,101195.91
2023-05-08T21:12:07.224Z,101191.16
2023-05-08T21:14:35.313Z,101145.44
2023-05-08T21:17:02.067Z,101193.03
2023-05-08T21:19:31.057Z,101191.63
2023-05-08T21:21:57.714Z,101194.69
2023-05-08T21:24:25.779Z,101185.78
2023-05-08T21:26:53.318Z,101178.13
2023-05-08T21:29:20.186Z,101181.59
2023-05-08T21:31:46.981Z,101053.75
2023-05-08T21:34:14.882Z,101173.00
2023-05-08T21:36:41.565Z,101179.91
2023-05-08T21:39:08.883Z,101105.19
2023-05-08T21:41:35.523Z,101144.75
2023-05-08T21:44:02.144Z,101161.84
2023-05-08T21:46:28.814Z,101166.84
2023-05-08T21:48:55.672Z,101142.41
2023-05-08T21:51:22.381Z,101165.91
2023-05-08T21:53:49.221Z,101158.44
2023-05-08T21:56:16.557Z,101155.72
2023-05-08T21:58:43.196Z,101155.75
2023-05-08T22:01:09.893Z,101150.31
2023-05-08T22:03:36.782Z,101158.19
2023-05-08T22:06:03.722Z,101164.25
2023-05-08T22:08:30.468Z,101162.34
2023-05-08T22:10:57.211Z,101141.66
2023-05-08T22:13:23.953Z,101124.78
2023-05-08T22:15:50.778Z,101145.00
2023-05-08T22:18:18.102Z,101120.16
2023-05-08T22:20:44.720Z,101143.69
2023-05-08T22:23:11.401Z,101131.94
2023-05-08T22:25:38.149Z,101128.19
2023-05-08T22:28:09.818Z,101129.88
2023-05-08T22:30:36.477Z,101129.88
2023-05-08T22:33:03.210Z,101128.09
2023-05-08T22:37:58.122Z,101130.59
2023-05-08T22:40:25.584Z,101124.84
2023-05-08T22:42:53.521Z,101115.94
2023-05-08T22:45:20.957Z,101130.06
2023-05-08T22:47:47.755Z,101099.00
2023-05-08T22:50:14.638Z,101091.63
2023-05-08T22:52:41.321Z,101116.84
2023-05-08T22:55:08.543Z,101116.13
2023-05-08T22:57:35.286Z,101110.41
2023-05-08T23:00:02.254Z,101109.81
2023-05-08T23:02:33.417Z,101098.41
2023-05-08T23:05:00.686Z,101099.63
2023-05-08T23:07:28.383Z,101103.44
2023-05-08T23:09:55.148Z,101104.88
2023-05-08T23:12:21.907Z,101093.00
2023-05-08T23:14:48.584Z,101087.78
2023-05-08T23:17:15.452Z,100985.69
2023-05-08T23:19:42.732Z,101089.88
2023-05-08T23:22:09.975Z,100935.22
2023-05-08T23:24:36.781Z,100996.44
2023-05-08T23:27:03.544Z,101092.44
2023-05-08T23:29:30.262Z,100974.91
2023-05-08T23:31:56.944Z,101060.31
2023-05-08T23:34:23.657Z,101086.44
2023-05-08T23:36:50.186Z,101078.75
2023-05-08T23:39:16.830Z,101077.88
2023-05-08T23:41:43.414Z,101081.84
2023-05-08T23:44:10.398Z,100984.22
2023-05-08T23:46:37.025Z,101006.22
2023-05-08T23:49:05.472Z,101083.19
2023-05-08T23:51:32.482Z,101076.84
2023-05-08T23:53:59.179Z,100990.19
2023-05-08T23:56:26.905Z,101070.34
2023-05-08T23:58:53.679Z,101075.53
